createdAt,value
2023-05-18T00:01:43.218Z,11.95
2023-05-18T00:04:11.033Z,12.28
2023-05-18T00:06:42.486Z,12.12
2023-05-18T00:09:10.727Z,11.58
2023-05-18T00:11:41.145Z,11.97
2023-05-18T00:14:08.702Z,12.03
2023-05-18T00:16:36.271Z,12.23
2023-05-18T00:19:05.205Z,11.91
2023-05-18T00:21:33.766Z,11.55
2023-05-18T00:24:01.528Z,10.90
2023-05-18T00:26:29.138Z,10.86
2023-05-18T00:28:56.624Z,11.09
2023-05-18T00:31:24.360Z,11.38
2023-05-18T00:33:54.944Z,11.39
2023-05-18T00:36:24.069Z,11.20
2023-05-18T00:38:51.641Z,11.04
2023-05-18T00:41:19.336Z,11.36
2023-05-18T00:43:47.059Z,12.14
2023-05-18T00:46:21.283Z,11.36
2023-05-18T00:48:50.628Z,11.80
2023-05-18T00:51:18.761Z,11.75
2023-05-18T00:53:48.345Z,11.45
2023-05-18T00:56:22.468Z,11.35
2023-05-18T00:58:51.123Z,11.91
2023-05-18T01:01:20.293Z,11.35
2023-05-18T01:03:57.533Z,11.67
2023-05-18T01:06:26.463Z,11.40
2023-05-18T01:08:56.111Z,11.40
2023-05-18T01:11:31.540Z,11.42
2023-05-18T01:14:05.211Z,10.96
2023-05-18T01:16:41.671Z,11.15
2023-05-18T01:19:28.515Z,11.32
2023-05-18T01:22:04.569Z,11.62
2023-05-18T01:24:39.685Z,11.18
2023-05-18T01:27:09.542Z,11.46
2023-05-18T01:29:48.466Z,11.16
2023-05-18T01:32:19.747Z,11.16
2023-05-18T01:34:47.812Z,11.04
2023-05-18T01:37:15.455Z,10.34
2023-05-18T01:39:43.332Z,10.10
2023-05-18T01:42:16.394Z,10.97
2023-05-18T01:44:48.874Z,10.80
2023-05-18T01:47:17.503Z,10.72
2023-05-18T01:49:49.033Z,11.39
2023-05-18T01:52:20.742Z,11.67
2023-05-18T01:54:53.301Z,11.21
2023-05-18T01:57:26.926Z,11.49
2023-05-18T01:59:55.401Z,11.46
2023-05-18T02:02:22.980Z,11.31
2023-05-18T02:04:50.585Z,11.31
2023-05-18T02:07:18.147Z,11.56
2023-05-18T02:09:45.828Z,11.91
2023-05-18T02:12:13.595Z,11.70
2023-05-18T02:14:42.464Z,11.85
2023-05-18T02:17:10.225Z,12.16
2023-05-18T02:19:38.738Z,11.90
2023-05-18T02:22:06.806Z,12.12
2023-05-18T02:24:34.336Z,11.97
2023-05-18T02:27:02.157Z,11.37
2023-05-18T02:29:29.644Z,11.60
2023-05-18T02:31:58.492Z,11.75
2023-05-18T02:34:27.460Z,12.01
2023-05-18T02:36:58.059Z,11.83
2023-05-18T02:39:25.637Z,12.13
2023-05-18T02:41:53.164Z,11.68
2023-05-18T02:44:20.721Z,11.82
2023-05-18T02:46:48.172Z,11.54
2023-05-18T02:49:17.025Z,10.98
2023-05-18T02:51:44.552Z,10.49
2023-05-18T02:54:12.234Z,10.92
2023-05-18T02:56:41.669Z,10.91
2023-05-18T02:59:09.206Z,10.73
2023-05-18T03:01:37.793Z,10.46
2023-05-18T03:04:05.733Z,11.00
2023-05-18T03:06:36.026Z,11.29
2023-05-18T03:09:03.516Z,11.36
2023-05-18T03:11:31.015Z,11.38
2023-05-18T03:13:58.515Z,11.17
2023-05-18T03:16:28.424Z,11.48
2023-05-18T03:18:58.869Z,11.52
2023-05-18T03:21:34.101Z,11.53
2023-05-18T03:24:03.350Z,11.53
2023-05-18T03:26:31.241Z,11.59
2023-05-18T03:28:58.953Z,11.74
2023-05-18T03:31:26.982Z,11.95
2023-05-18T03:33:54.578Z,12.12
2023-05-18T03:36:22.860Z,11.97
2023-05-18T03:38:50.296Z,12.27
2023-05-18T03:41:19.301Z,12.40
2023-05-18T03:43:46.952Z,12.38
2023-05-18T03:46:14.533Z,11.86
2023-05-18T03:48:41.956Z,12.67
2023-05-18T03:51:09.543Z,12.72
2023-05-18T03:53:37.154Z,12.89
2023-05-18T03:56:04.700Z,13.40
2023-05-18T03:58:33.516Z,13.93
2023-05-18T04:01:01.442Z,14.60
2023-05-18T04:03:30.663Z,15.65
2023-05-18T04:05:58.279Z,16.25
2023-05-18T04:08:26.165Z,17.34
2023-05-18T04:10:53.802Z,18.92
2023-05-18T04:13:21.287Z,19.33
2023-05-18T04:15:50.237Z,17.97
2023-05-18T04:18:17.818Z,17.26
2023-05-18T04:20:46.047Z,16.92
2023-05-18T04:23:13.850Z,18.89
2023-05-18T04:25:41.576Z,20.70
2023-05-18T04:28:09.823Z,19.67
2023-05-18T04:30:38.893Z,19.14
2023-05-18T04:33:07.813Z,18.46
2023-05-18T04:35:36.102Z,17.48
2023-05-18T04:38:05.119Z,17.73
2023-05-18T04:40:33.908Z,15.93
2023-05-18T04:43:01.712Z,14.82
2023-05-18T04:45:30.158Z,15.03
2023-05-18T04:47:58.832Z,14.32
2023-05-18T04:50:28.129Z,14.04
2023-05-18T04:52:58.191Z,13.65
2023-05-18T04:55:27.445Z,13.13
2023-05-18T04:57:56.876Z,12.95
2023-05-18T05:00:26.438Z,12.23
2023-05-18T05:02:54.490Z,12.80
2023-05-18T05:05:23.802Z,12.22
2023-05-18T05:07:53.180Z,12.74
2023-05-18T05:10:21.096Z,13.03
2023-05-18T05:12:50.036Z,13.45
2023-05-18T05:15:17.733Z,13.99
2023-05-18T05:17:45.303Z,13.16
2023-05-18T05:20:13.351Z,12.42
2023-05-18T05:22:40.947Z,12.82
2023-05-18T05:25:10.211Z,12.88
2023-05-18T05:27:37.844Z,13.99
2023-05-18T05:30:06.196Z,12.83
2023-05-18T05:32:33.826Z,13.45
2023-05-18T05:35:01.381Z,12.71
2023-05-18T05:37:29.288Z,12.96
2023-05-18T05:39:57.471Z,13.39
2023-05-18T05:42:26.835Z,12.80
2023-05-18T05:44:54.361Z,12.26
2023-05-18T05:47:22.091Z,12.91
2023-05-18T05:49:49.591Z,12.94
2023-05-18T05:52:17.052Z,13.57
2023-05-18T05:54:44.607Z,14.75
2023-05-18T05:57:12.190Z,16.70
2023-05-18T05:59:40.964Z,18.75
2023-05-18T06:02:11.387Z,17.49
2023-05-18T06:04:39.100Z,16.32
2023-05-18T06:07:06.856Z,14.58
2023-05-18T06:09:34.443Z,14.37
2023-05-18T06:12:02.191Z,15.10
2023-05-18T06:14:29.752Z,15.10
2023-05-18T06:16:58.869Z,15.80
2023-05-18T06:19:26.432Z,15.19
2023-05-18T06:21:53.991Z,14.80
2023-05-18T06:24:21.517Z,14.65
2023-05-18T06:26:49.037Z,15.16
2023-05-18T06:29:16.563Z,14.28
2023-05-18T06:31:44.079Z,15.63
2023-05-18T06:34:12.940Z,14.82
2023-05-18T06:36:40.429Z,15.45
2023-05-18T06:39:07.926Z,15.74
2023-05-18T06:41:35.738Z,15.89
2023-05-18T06:44:03.255Z,15.47
2023-05-18T06:46:30.841Z,16.21
2023-05-18T06:48:58.390Z,16.58
2023-05-18T06:51:27.170Z,14.77
2023-05-18T06:53:54.736Z,14.55
2023-05-18T06:56:22.421Z,15.09
2023-05-18T06:58:49.883Z,13.98
2023-05-18T07:01:19.397Z,14.66
2023-05-18T07:03:47.152Z,14.90
2023-05-18T07:06:14.801Z,14.57
2023-05-18T07:08:45.416Z,15.29
2023-05-18T07:11:12.907Z,14.62
2023-05-18T07:13:40.438Z,15.30
2023-05-18T07:16:08.038Z,15.74
2023-05-18T07:18:35.728Z,15.57
2023-05-18T07:21:03.418Z,14.53
2023-05-18T07:23:31.159Z,14.28
2023-05-18T07:25:59.919Z,14.65
2023-05-18T07:28:27.487Z,14.96
2023-05-18T07:30:54.902Z,14.13
2023-05-18T07:33:22.342Z,15.13
2023-05-18T07:35:49.833Z,15.93
2023-05-18T07:38:17.267Z,16.31
2023-05-18T07:40:44.715Z,14.87
2023-05-18T07:43:13.491Z,14.59
2023-05-18T07:45:40.979Z,16.28
2023-05-18T07:48:08.766Z,16.58
2023-05-18T07:50:36.285Z,16.64
2023-05-18T07:53:03.803Z,16.90
2023-05-18T07:55:31.930Z,16.52
2023-05-18T07:58:01.021Z,16.41
2023-05-18T08:00:30.094Z,14.82
2023-05-18T08:02:57.922Z,15.18
2023-05-18T08:05:25.523Z,14.11
2023-05-18T08:07:53.152Z,13.93
2023-05-18T08:10:20.607Z,14.46
2023-05-18T08:12:48.096Z,14.48
2023-05-18T08:15:15.541Z,15.31
2023-05-18T08:17:44.384Z,15.27
2023-05-18T08:20:12.743Z,15.63
2023-05-18T08:22:40.206Z,16.15
2023-05-18T08:25:10.144Z,16.19
2023-05-18T08:27:37.610Z,15.43
2023-05-18T08:30:05.578Z,14.91
2023-05-18T08:32:33.069Z,15.60
2023-05-18T08:35:01.836Z,14.50
2023-05-18T08:37:29.640Z,14.71
2023-05-18T08:39:57.286Z,14.30
2023-05-18T08:42:41.648Z,14.39
2023-05-18T08:45:22.521Z,14.75
2023-05-18T08:47:50.955Z,14.86
2023-05-18T08:50:24.313Z,16.41
2023-05-18T08:52:55.971Z,16.00
2023-05-18T08:55:24.528Z,15.16
2023-05-18T08:57:56.143Z,15.95
2023-05-18T09:00:24.973Z,16.28
2023-05-18T09:02:53.172Z,15.07
2023-05-18T09:05:23.966Z,14.86
2023-05-18T09:07:51.925Z,15.07
2023-05-18T09:10:19.670Z,14.94
2023-05-18T09:12:50.062Z,15.10
2023-05-18T09:15:18.404Z,14.84
2023-05-18T09:17:46.023Z,14.51
2023-05-18T09:20:13.959Z,14.31
2023-05-18T09:22:42.993Z,14.55
2023-05-18T09:25:11.838Z,15.19
2023-05-18T09:27:39.688Z,15.08
2023-05-18T09:30:11.916Z,15.07
2023-05-18T09:32:39.833Z,14.64
2023-05-18T09:35:09.066Z,15.82
2023-05-18T09:37:37.156Z,14.88
2023-05-18T09:40:08.032Z,15.34
2023-05-18T09:42:39.144Z,15.32
2023-05-18T09:45:17.363Z,15.78
2023-05-18T09:47:44.962Z,15.87
2023-05-18T09:50:13.063Z,16.00
2023-05-18T09:52:44.131Z,15.49
2023-05-18T09:55:13.720Z,16.48
2023-05-18T09:57:42.692Z,15.70
2023-05-18T10:00:12.515Z,16.65
2023-05-18T10:02:41.493Z,16.05
2023-05-18T10:05:20.085Z,16.03
2023-05-18T10:07:48.533Z,15.54
2023-05-18T10:10:21.036Z,15.17
2023-05-18T10:12:48.988Z,14.91
2023-05-18T10:15:17.654Z,14.88
2023-05-18T10:17:45.727Z,15.34
2023-05-18T10:20:18.705Z,14.83
2023-05-18T10:22:47.929Z,15.10
2023-05-18T10:25:21.809Z,15.28
2023-05-18T10:27:50.805Z,16.30
2023-05-18T10:30:18.736Z,16.42
2023-05-18T10:32:46.921Z,15.77
2023-05-18T10:35:15.302Z,15.19
2023-05-18T10:37:47.810Z,15.26
2023-05-18T10:40:15.760Z,15.19
2023-05-18T10:42:46.846Z,16.16
2023-05-18T10:45:16.323Z,15.99
2023-05-18T10:47:45.379Z,16.36
2023-05-18T10:50:13.709Z,16.69
2023-05-18T10:52:42.382Z,16.51
2023-05-18T10:55:10.450Z,16.37
2023-05-18T10:57:43.996Z,15.59
2023-05-18T11:00:14.451Z,15.96
2023-05-18T11:02:43.317Z,16.62
2023-05-18T11:05:12.342Z,15.74
2023-05-18T11:07:40.488Z,16.88
2023-05-18T11:10:10.761Z,16.65
2023-05-18T11:12:39.285Z,17.54
2023-05-18T11:15:08.291Z,17.07
2023-05-18T11:17:37.104Z,16.98
2023-05-18T11:20:26.184Z,18.16
2023-05-18T11:23:03.520Z,18.53
2023-05-18T11:25:43.315Z,18.06
2023-05-18T11:28:13.682Z,16.34
2023-05-18T11:30:48.204Z,16.98
2023-05-18T11:33:19.325Z,17.88
2023-05-18T11:36:01.612Z,16.43
2023-05-18T11:38:48.451Z,17.25
2023-05-18T11:41:34.155Z,17.31
2023-05-18T11:44:17.232Z,17.36
2023-05-18T11:46:56.338Z,16.53
2023-05-18T11:49:26.521Z,16.65
2023-05-18T11:52:06.094Z,17.17
2023-05-18T11:54:41.993Z,17.51
2023-05-18T11:57:11.130Z,18.36
2023-05-18T11:59:40.443Z,18.45
2023-05-18T12:02:11.371Z,19.13
2023-05-18T12:04:53.652Z,19.44
2023-05-18T12:07:22.458Z,19.04
2023-05-18T12:09:50.321Z,18.22
2023-05-18T12:12:20.255Z,18.01
2023-05-18T12:14:54.912Z,18.88
2023-05-18T12:17:23.410Z,16.84
2023-05-18T12:19:52.243Z,17.17
2023-05-18T12:22:19.962Z,18.03
2023-05-18T12:24:47.437Z,17.58
2023-05-18T12:27:14.942Z,17.29
2023-05-18T12:29:43.316Z,17.58
2023-05-18T12:32:12.445Z,16.89
2023-05-18T12:34:40.889Z,16.69
2023-05-18T12:37:09.695Z,16.73
2023-05-18T12:39:37.542Z,16.52
2023-05-18T12:42:15.528Z,16.79
2023-05-18T12:44:46.562Z,16.10
2023-05-18T12:47:15.144Z,16.90
2023-05-18T12:49:44.625Z,17.31
2023-05-18T12:52:14.656Z,17.27
2023-05-18T12:54:58.490Z,18.20
2023-05-18T12:57:26.997Z,18.36
2023-05-18T12:59:55.335Z,18.05
2023-05-18T13:02:33.944Z,17.68
2023-05-18T13:05:09.623Z,17.97
2023-05-18T13:07:40.494Z,16.89
2023-05-18T13:10:10.456Z,17.51
2023-05-18T13:12:43.848Z,17.52
2023-05-18T13:15:16.713Z,17.74
2023-05-18T13:18:00.365Z,19.10
2023-05-18T13:20:35.801Z,18.02
2023-05-18T13:23:06.182Z,17.88
2023-05-18T13:25:33.844Z,18.12
2023-05-18T13:28:02.031Z,18.59
2023-05-18T13:30:29.838Z,17.29
2023-05-18T13:32:58.337Z,16.70
2023-05-18T13:35:25.883Z,17.22
2023-05-18T13:37:54.085Z,18.18
2023-05-18T13:40:25.566Z,17.47
2023-05-18T13:42:53.735Z,17.58
2023-05-18T13:45:22.390Z,17.27
2023-05-18T13:47:51.650Z,17.84
2023-05-18T13:50:19.514Z,18.54
2023-05-18T13:52:47.499Z,17.05
2023-05-18T13:55:15.066Z,16.75
2023-05-18T13:57:45.345Z,16.80
2023-05-18T14:00:13.989Z,17.14
2023-05-18T14:02:42.020Z,17.81
2023-05-18T14:05:10.072Z,18.28
2023-05-18T14:07:37.828Z,17.59
2023-05-18T14:10:06.180Z,17.36
2023-05-18T14:12:34.006Z,17.76
2023-05-18T14:15:03.462Z,18.05
2023-05-18T14:17:30.998Z,17.50
2023-05-18T14:19:58.998Z,17.77
2023-05-18T14:22:27.413Z,18.17
2023-05-18T14:24:54.930Z,17.77
2023-05-18T14:27:22.557Z,16.85
2023-05-18T14:29:51.548Z,16.81
2023-05-18T14:32:21.589Z,16.78
2023-05-18T14:34:51.580Z,17.06
2023-05-18T14:37:19.240Z,17.34
2023-05-18T14:39:46.750Z,17.27
2023-05-18T14:42:14.323Z,17.31
2023-05-18T14:44:41.753Z,17.06
2023-05-18T14:47:10.300Z,17.70
2023-05-18T14:49:39.660Z,17.27
2023-05-18T14:52:07.522Z,17.47
2023-05-18T14:54:35.016Z,17.96
2023-05-18T14:57:02.488Z,18.67
2023-05-18T14:59:29.975Z,18.02
2023-05-18T15:01:57.469Z,17.39
2023-05-18T15:04:25.788Z,17.44
2023-05-18T15:06:54.616Z,17.81
2023-05-18T15:09:22.762Z,16.98
2023-05-18T15:11:52.196Z,17.11
2023-05-18T15:14:20.092Z,17.57
2023-05-18T15:16:47.640Z,18.04
2023-05-18T15:19:15.285Z,17.84
2023-05-18T15:21:44.754Z,17.92
2023-05-18T15:24:13.549Z,17.72
2023-05-18T15:26:41.927Z,18.65
2023-05-18T15:29:09.986Z,17.83
2023-05-18T15:31:39.789Z,18.66
2023-05-18T15:34:07.443Z,17.82
2023-05-18T15:36:36.325Z,18.28
2023-05-18T15:39:04.887Z,18.41
2023-05-18T15:41:34.823Z,17.96
2023-05-18T15:44:02.806Z,17.40
2023-05-18T15:46:33.113Z,16.96
2023-05-18T15:49:00.903Z,17.23
2023-05-18T15:51:28.441Z,17.62
2023-05-18T15:53:55.978Z,17.49
2023-05-18T15:56:23.629Z,17.51
2023-05-18T15:58:52.432Z,17.58
2023-05-18T16:01:19.992Z,17.07
2023-05-18T16:03:47.578Z,17.50
2023-05-18T16:06:15.103Z,17.73
2023-05-18T16:08:42.571Z,17.36
2023-05-18T16:11:10.035Z,17.66
2023-05-18T16:13:37.522Z,18.08
2023-05-18T16:16:08.849Z,17.63
2023-05-18T16:18:36.466Z,17.68
2023-05-18T16:21:04.044Z,17.88
2023-05-18T16:23:31.497Z,17.62
2023-05-18T16:25:59.889Z,17.60
2023-05-18T16:28:27.354Z,17.99
2023-05-18T16:30:54.816Z,17.57
2023-05-18T16:33:25.824Z,17.66
2023-05-18T16:35:53.569Z,17.58
2023-05-18T16:38:21.016Z,17.64
2023-05-18T16:40:48.432Z,18.01
2023-05-18T16:43:15.859Z,17.49
2023-05-18T16:45:43.381Z,17.58
2023-05-18T16:48:11.209Z,17.46
2023-05-18T16:50:40.049Z,17.84
2023-05-18T16:53:07.470Z,17.47
2023-05-18T16:55:34.922Z,18.20
2023-05-18T16:58:02.606Z,17.98
2023-05-18T17:00:30.522Z,18.36
2023-05-18T17:02:58.310Z,17.98
2023-05-18T17:05:26.520Z,17.66
2023-05-18T17:07:55.420Z,17.44
2023-05-18T17:10:23.124Z,17.88
2023-05-18T17:12:51.115Z,17.31
2023-05-18T17:15:18.581Z,18.39
2023-05-18T17:17:46.133Z,17.17
2023-05-18T17:20:13.605Z,17.02
2023-05-18T17:22:41.078Z,16.76
2023-05-18T17:25:10.474Z,17.23
2023-05-18T17:27:37.937Z,16.61
2023-05-18T17:30:06.606Z,17.01
2023-05-18T17:32:34.163Z,16.92
2023-05-18T17:35:02.011Z,17.12
2023-05-18T17:37:29.443Z,17.46
2023-05-18T17:39:56.930Z,17.67
2023-05-18T17:42:25.844Z,17.01
2023-05-18T17:44:53.278Z,17.26
2023-05-18T17:47:21.986Z,17.16
2023-05-18T17:49:49.660Z,16.71
2023-05-18T17:52:17.143Z,17.47
2023-05-18T17:54:44.622Z,16.62
2023-05-18T17:57:12.127Z,16.74
2023-05-18T17:59:40.990Z,16.51
2023-05-18T18:02:08.445Z,16.93
2023-05-18T18:04:35.894Z,18.18
2023-05-18T18:07:03.420Z,18.00
2023-05-18T18:09:31.098Z,17.06
2023-05-18T18:12:00.519Z,16.76
2023-05-18T18:14:27.961Z,17.75
2023-05-18T18:16:59.095Z,17.90
2023-05-18T18:19:27.385Z,17.89
2023-05-18T18:21:55.581Z,18.33
2023-05-18T18:24:23.725Z,17.67
2023-05-18T18:26:52.681Z,17.84
2023-05-18T18:29:20.210Z,17.61
2023-05-18T18:31:47.677Z,17.97
2023-05-18T18:34:16.417Z,18.27
2023-05-18T18:36:43.878Z,17.41
2023-05-18T18:39:11.315Z,17.89
2023-05-18T18:41:38.754Z,17.72
2023-05-18T18:44:06.420Z,17.59
2023-05-18T18:46:34.162Z,17.62
2023-05-18T18:49:01.664Z,17.31
2023-05-18T18:51:31.216Z,17.68
2023-05-18T18:53:58.651Z,17.18
2023-05-18T18:56:27.388Z,17.05
2023-05-18T18:58:54.847Z,17.58
2023-05-18T19:01:22.332Z,17.25
2023-05-18T19:03:49.979Z,17.64
2023-05-18T19:06:17.505Z,17.31
2023-05-18T19:08:46.344Z,17.52
2023-05-18T19:11:13.796Z,16.88
2023-05-18T19:13:41.220Z,17.20
2023-05-18T19:16:08.900Z,17.60
2023-05-18T19:18:36.535Z,17.38
2023-05-18T19:21:04.243Z,17.30
2023-05-18T19:23:31.820Z,17.33
2023-05-18T19:26:02.119Z,17.35
2023-05-18T19:28:29.565Z,17.21
2023-05-18T19:30:57.010Z,16.94
2023-05-18T19:33:24.663Z,16.91
2023-05-18T19:35:52.870Z,16.86
2023-05-18T19:38:20.366Z,16.60
2023-05-18T19:40:47.948Z,17.13
2023-05-18T19:43:17.014Z,17.44
2023-05-18T19:45:44.489Z,17.55
2023-05-18T19:48:13.873Z,17.70
2023-05-18T19:50:41.313Z,17.68
2023-05-18T19:53:08.803Z,17.18
2023-05-18T19:55:36.369Z,16.94
2023-05-18T19:58:03.841Z,16.15
2023-05-18T20:00:33.206Z,15.57
2023-05-18T20:03:02.406Z,15.44
2023-05-18T20:05:30.185Z,15.53
2023-05-18T20:07:58.304Z,15.64
2023-05-18T20:10:26.077Z,15.36
2023-05-18T20:12:53.532Z,14.82
2023-05-18T20:15:20.960Z,14.84
2023-05-18T20:17:49.892Z,15.11
2023-05-18T20:20:19.956Z,14.83
2023-05-18T20:22:47.834Z,14.52
2023-05-18T20:25:15.438Z,14.68
2023-05-18T20:27:42.897Z,15.12
2023-05-18T20:30:11.490Z,14.32
2023-05-18T20:32:39.057Z,13.96
2023-05-18T20:35:08.260Z,14.39
2023-05-18T20:37:35.735Z,16.30
2023-05-18T20:40:08.800Z,14.21
2023-05-18T20:42:40.216Z,13.84
2023-05-18T20:45:08.398Z,13.93
2023-05-18T20:47:36.442Z,13.99
2023-05-18T20:50:04.386Z,13.79
2023-05-18T20:52:33.149Z,14.08
2023-05-18T20:55:00.614Z,14.73
2023-05-18T20:57:29.982Z,14.96
2023-05-18T20:59:57.439Z,14.67
2023-05-18T21:02:24.988Z,13.86
2023-05-18T21:04:52.488Z,13.99
2023-05-18T21:07:21.219Z,13.88
2023-05-18T21:09:50.618Z,14.61
2023-05-18T21:12:18.140Z,14.73
2023-05-18T21:14:45.763Z,14.88
2023-05-18T21:17:15.229Z,13.84
2023-05-18T21:19:42.775Z,13.59
2023-05-18T21:22:11.587Z,14.46
2023-05-18T21:24:39.038Z,13.82
2023-05-18T21:27:08.098Z,14.34
2023-05-18T21:29:35.667Z,14.15
2023-05-18T21:32:03.357Z,13.63
2023-05-18T21:34:30.849Z,13.72
2023-05-18T21:36:58.481Z,13.89
2023-05-18T21:39:25.928Z,13.74
2023-05-18T21:41:53.394Z,13.57
2023-05-18T21:44:22.274Z,14.32
2023-05-18T21:46:54.859Z,14.13
2023-05-18T21:49:22.335Z,13.89
2023-05-18T21:51:49.884Z,13.67
2023-05-18T21:54:18.536Z,14.04
2023-05-18T21:56:46.274Z,14.02
2023-05-18T21:59:13.759Z,13.76
2023-05-18T22:01:42.654Z,13.63
2023-05-18T22:04:10.154Z,14.31
2023-05-18T22:06:37.644Z,14.44
2023-05-18T22:09:06.068Z,13.71
2023-05-18T22:11:33.603Z,14.11
2023-05-18T22:14:01.764Z,13.72
2023-05-18T22:16:29.287Z,13.96
2023-05-18T22:18:58.256Z,14.62
2023-05-18T22:21:25.729Z,13.75
2023-05-18T22:23:53.152Z,13.89
2023-05-18T22:26:20.940Z,14.26
2023-05-18T22:28:48.503Z,13.45
2023-05-18T22:31:16.059Z,14.29
2023-05-18T22:33:43.490Z,13.68
2023-05-18T22:36:12.244Z,13.62
2023-05-18T22:38:43.148Z,13.87
2023-05-18T22:41:10.719Z,13.56
2023-05-18T22:43:38.165Z,13.06
2023-05-18T22:46:05.834Z,13.05
2023-05-18T22:48:34.804Z,13.18
2023-05-18T22:51:04.117Z,14.14
2023-05-18T22:53:33.030Z,14.43
2023-05-18T22:56:00.636Z,14.40
2023-05-18T22:58:28.353Z,13.49
2023-05-18T23:00:56.028Z,14.15
2023-05-18T23:03:23.872Z,13.35
2023-05-18T23:05:51.371Z,13.47
2023-05-18T23:08:20.325Z,13.37
2023-05-18T23:10:50.638Z,13.67
2023-05-18T23:13:19.613Z,13.20
2023-05-18T23:15:47.772Z,13.20
2023-05-18T23:18:15.448Z,13.92
2023-05-18T23:20:42.930Z,13.27
2023-05-18T23:23:10.550Z,12.57
2023-05-18T23:25:38.030Z,13.67
2023-05-18T23:28:06.862Z,13.84
2023-05-18T23:30:34.314Z,14.03
2023-05-18T23:33:02.515Z,13.76
2023-05-18T23:35:30.910Z,13.06
2023-05-18T23:38:02.025Z,13.14
2023-05-18T23:40:30.183Z,13.98
2023-05-18T23:42:58.328Z,13.16
2023-05-18T23:45:27.959Z,13.57
2023-05-18T23:47:56.724Z,13.82
2023-05-18T23:50:24.740Z,12.80
2023-05-18T23:52:53.994Z,13.45
2023-05-18T23:55:24.006Z,13.84
2023-05-18T23:57:52.049Z,13.96
